KSNY

Sidney Municipal / Lloyd W Carr Field Airport

Sidney, Nebraska, USA
METAR KSNY 200053Z AUTO 30007KT 10SM CLR 04/M04 A2970 RMK AO2 SLP074 T00441044
Observed Flight Rules
Jan-20 @ 00:53 UTC (29 minutes ago) Visual Flight Rules
Wind Visibility Clouds
300° at 7 knots 10 miles
  • Clear skies
Temperatures Readings
Current 4°C / 39°F
Dewpoint -4°C / 25°F
Humidity 56%
Altimeter 29.7" Hg
Pressure 1007.4 hPa
Elevation 1307
METAR KSNY 200053Z AUTO 30007KT 10SM CLR 04/M04 A2970 RMK AO2 SLP074 T00441044
Observed Flight Rules
Jan-20 @ 00:53 UTC
(29 minutes ago)
VFR
Wind Visibility
300° at 7 knots 10 miles
Clouds
  • Clear skies
Temperature Dewpoint
4°C / 39°F -4°C / 25°F
Humidity Altimeter Pressure
56% 29.7" Hg 1007.4 hPa